Time;durP1;ratioP1;P1;durP2;ratioP2;P2;SDS_P1;SDS_P2;PMS_P1;PMS_P2;Temp;Humidity;BMP_temperature;BMP_pressure;BME280_temperature;BME280_humidity;BME280_pressure;Samples;Min_cycle;Max_cycle;Signal;HPM_P1;HPM_P2
2022/10/01 05:08:24;;;;;;;1.90;0.98;;;11.80;99.90;;;;;;5299617;23;20059;-87
2022/10/01 05:10:51;;;;;;;2.28;0.90;;;11.90;99.90;;;;;;4959914;29;20078;-86
2022/10/01 05:13:18;;;;;;;3.08;1.20;;;11.90;99.90;;;;;;4953300;29;20047;-86
2022/10/01 05:15:49;;;;;;;2.40;1.00;;;11.90;99.90;;;;;;4947291;28;20107;-86
2022/10/01 05:18:15;;;;;;;1.38;0.93;;;11.90;99.90;;;;;;4956489;29;20067;-87
2022/10/01 05:20:42;;;;;;;1.52;1.10;;;11.90;99.90;;;;;;4948169;29;20055;-85
2022/10/01 05:23:09;;;;;;;1.67;1.02;;;12.00;99.90;;;;;;4961319;28;20047;-85
2022/10/01 05:25:36;;;;;;;1.25;0.90;;;12.00;99.90;;;;;;4945048;29;20055;-85
2022/10/01 05:28:04;;;;;;;3.92;0.80;;;12.00;99.90;;;;;;4967529;23;20405;-82
2022/10/01 05:30:32;;;;;;;1.05;0.73;;;12.00;99.90;;;;;;4937751;29;20062;-83
2022/10/01 05:33:01;;;;;;;1.52;0.90;;;12.10;99.90;;;;;;4932086;29;20047;-82
2022/10/01 05:35:28;;;;;;;3.72;0.70;;;12.10;99.90;;;;;;4963361;29;20058;-83
2022/10/01 05:37:57;;;;;;;3.05;0.70;;;12.10;99.90;;;;;;4948451;29;20126;-82
2022/10/01 05:40:26;;;;;;;1.33;0.90;;;12.10;99.90;;;;;;4947059;29;20075;-82
2022/10/01 05:42:54;;;;;;;0.88;0.80;;;12.10;99.90;;;;;;4967557;29;20111;-83
2022/10/01 05:45:21;;;;;;;3.13;0.80;;;12.10;99.90;;;;;;4966969;29;20055;-83
2022/10/01 05:47:58;;;;;;;2.63;1.17;;;12.10;99.90;;;;;;4960374;28;20505;-82
2022/10/01 05:50:26;;;;;;;1.85;0.80;;;12.10;99.90;;;;;;4961533;29;20050;-84
2022/10/01 05:52:54;;;;;;;3.40;0.98;;;12.10;99.90;;;;;;4943322;29;20424;-83
2022/10/01 05:55:21;;;;;;;3.10;1.30;;;12.10;99.90;;;;;;4951398;29;20058;-82
2022/10/01 05:58:03;;;;;;;1.20;1.00;;;12.00;99.90;;;;;;4946328;29;20058;-82
2022/10/01 06:00:31;;;;;;;0.95;0.70;;;11.90;99.90;;;;;;4960571;28;20146;-82
2022/10/01 06:03:00;;;;;;;0.95;0.70;;;11.90;99.90;;;;;;4947435;29;20052;-83
2022/10/01 06:05:28;;;;;;;1.85;0.75;;;11.90;99.90;;;;;;4948987;29;20048;-82
2022/10/01 06:07:55;;;;;;;1.35;0.98;;;11.80;99.90;;;;;;4954909;29;20070;-83
2022/10/01 06:10:23;;;;;;;3.80;0.70;;;11.80;99.90;;;;;;4948774;29;20492;-84
2022/10/01 06:12:50;;;;;;;0.57;0.57;;;11.80;99.90;;;;;;4941164;29;20056;-83
2022/10/01 06:15:17;;;;;;;2.53;0.95;;;11.70;99.90;;;;;;4959148;29;20052;-84
2022/10/01 06:17:44;;;;;;;1.45;0.93;;;11.70;99.90;;;;;;4961358;28;20615;-83
2022/10/01 06:20:13;;;;;;;1.25;0.90;;;11.70;99.90;;;;;;4958926;29;20052;-82
2022/10/01 06:22:42;;;;;;;1.37;0.97;;;11.70;99.90;;;;;;4957332;29;20050;-84
2022/10/01 06:25:11;;;;;;;1.17;0.88;;;11.70;99.90;;;;;;4945231;29;20052;-83
2022/10/01 06:27:38;;;;;;;1.20;0.82;;;11.70;99.90;;;;;;4953537;29;20054;-82
2022/10/01 06:30:06;;;;;;;1.27;1.10;;;11.70;99.90;;;;;;4959120;28;20051;-84
2022/10/01 06:32:33;;;;;;;2.70;0.70;;;11.60;99.90;;;;;;4959245;29;20055;-82
2022/10/01 06:35:02;;;;;;;1.95;0.70;;;11.60;99.90;;;;;;4958381;29;20449;-82
2022/10/01 06:37:28;;;;;;;1.30;0.90;;;11.60;99.90;;;;;;4954944;29;20115;-83
2022/10/01 06:39:55;;;;;;;0.95;0.75;;;11.60;99.90;;;;;;4956243;29;20056;-84
2022/10/01 06:42:22;;;;;;;4.10;1.00;;;11.60;99.90;;;;;;4956841;29;20047;-83
2022/10/01 06:44:48;;;;;;;2.28;0.90;;;11.60;99.90;;;;;;4947718;29;20062;-83
2022/10/01 06:47:15;;;;;;;0.70;0.70;;;11.60;99.90;;;;;;4947693;29;20062;-82
2022/10/01 06:49:42;;;;;;;1.77;0.85;;;11.60;99.90;;;;;;4956764;29;20059;-83
2022/10/01 06:55:00;;;;;;;2.90;1.27;;;11.70;99.90;;;;;;4953027;29;20055;-83
2022/10/01 06:57:27;;;;;;;5.10;1.50;;;11.70;99.90;;;;;;4959832;28;20074;-81
2022/10/01 06:59:54;;;;;;;4.80;1.85;;;11.70;99.90;;;;;;4956134;29;20536;-83
2022/10/01 07:02:29;;;;;;;1.90;1.10;;;11.70;99.90;;;;;;4956764;29;20123;-84
2022/10/01 07:04:58;;;;;;;2.88;1.50;;;11.70;99.90;;;;;;4963028;29;20134;-83
2022/10/01 07:07:34;;;;;;;3.50;1.35;;;11.80;99.90;;;;;;4965197;28;20058;-83
2022/10/01 07:10:02;;;;;;;1.90;1.10;;;11.80;99.90;;;;;;4952594;29;20051;-84
2022/10/01 07:12:29;;;;;;;4.05;1.17;;;11.80;99.90;;;;;;4956234;29;20061;-83
2022/10/01 07:14:56;;;;;;;1.33;1.05;;;11.80;99.90;;;;;;4952805;29;20441;-83
2022/10/01 07:17:23;;;;;;;0.93;0.80;;;11.80;99.90;;;;;;4950704;29;20051;-81
2022/10/01 07:19:49;;;;;;;1.17;0.80;;;11.90;99.90;;;;;;4963527;29;20475;-83
2022/10/01 07:22:18;;;;;;;2.95;1.00;;;11.80;99.90;;;;;;4955384;29;20056;-83
2022/10/01 07:24:45;;;;;;;2.60;0.93;;;11.90;99.90;;;;;;4959786;28;20122;-83
2022/10/01 07:27:13;;;;;;;1.90;0.70;;;11.90;99.90;;;;;;4949448;29;20051;-83
2022/10/01 07:29:40;;;;;;;1.25;0.80;;;11.90;99.90;;;;;;4950276;29;20123;-83
2022/10/01 07:32:09;;;;;;;1.85;0.80;;;12.00;99.90;;;;;;4954394;29;20079;-82
2022/10/01 07:34:41;;;;;;;0.93;0.65;;;12.00;99.90;;;;;;4957407;29;20102;-83
2022/10/01 07:37:08;;;;;;;1.75;0.80;;;12.00;99.90;;;;;;4949432;29;20056;-83
2022/10/01 07:39:35;;;;;;;1.38;0.88;;;12.00;99.90;;;;;;4951988;28;20055;-82
2022/10/01 07:42:03;;;;;;;1.83;0.95;;;12.00;99.90;;;;;;4957300;28;20566;-83
2022/10/01 07:44:30;;;;;;;1.35;0.80;;;12.10;99.90;;;;;;4959435;29;20044;-83
2022/10/01 07:46:56;;;;;;;5.22;1.30;;;12.10;99.90;;;;;;4963352;28;20058;-84
2022/10/01 07:49:24;;;;;;;1.98;0.85;;;12.10;99.90;;;;;;4968277;29;20047;-83
2022/10/01 07:51:52;;;;;;;2.00;0.90;;;12.10;99.90;;;;;;4954664;29;20398;-84
2022/10/01 07:54:21;;;;;;;5.78;1.23;;;12.10;99.90;;;;;;4951574;29;20052;-83
2022/10/01 07:56:51;;;;;;;1.90;0.93;;;12.10;99.90;;;;;;4962083;28;20054;-82
2022/10/01 07:59:18;;;;;;;5.07;1.10;;;12.10;99.90;;;;;;4966327;29;20047;-83
2022/10/01 08:01:48;;;;;;;3.08;0.95;;;12.10;99.90;;;;;;4964945;29;20043;-82
2022/10/01 08:07:00;;;;;;;4.88;1.40;;;12.10;99.90;;;;;;4959825;28;20051;-83
2022/10/01 08:09:27;;;;;;;1.98;0.98;;;12.10;99.90;;;;;;4960766;29;20050;-82
2022/10/01 08:11:54;;;;;;;2.65;1.00;;;12.20;99.90;;;;;;4959635;29;20505;-83
2022/10/01 08:14:21;;;;;;;8.52;1.02;;;12.20;99.90;;;;;;4958488;29;20047;-84
2022/10/01 08:16:48;;;;;;;1.23;0.77;;;12.20;99.90;;;;;;4950826;29;20050;-84
2022/10/01 08:19:15;;;;;;;2.35;0.70;;;12.20;99.90;;;;;;4959753;29;20520;-82
2022/10/01 08:21:42;;;;;;;1.85;0.57;;;12.30;99.90;;;;;;4963542;29;20078;-83
2022/10/01 08:24:08;;;;;;;0.60;0.60;;;12.30;99.90;;;;;;4961020;29;20043;-83
2022/10/01 08:26:35;;;;;;;1.45;0.63;;;12.30;99.90;;;;;;4957596;29;20074;-84
2022/10/01 08:29:02;;;;;;;1.00;0.90;;;12.40;99.90;;;;;;4952904;29;20058;-82
2022/10/01 08:31:29;;;;;;;2.00;0.75;;;12.40;99.90;;;;;;4956138;29;20063;-83
2022/10/01 08:33:56;;;;;;;1.15;0.60;;;12.50;99.90;;;;;;4962063;29;20055;-83
2022/10/01 08:36:22;;;;;;;0.90;0.77;;;12.50;99.90;;;;;;4945662;29;20048;-82
2022/10/01 08:38:49;;;;;;;2.35;0.68;;;12.50;99.90;;;;;;4958875;29;20054;-82
2022/10/01 08:41:45;;;;;;;2.58;0.52;;;12.50;99.90;;;;;;4962484;29;20398;-82
2022/10/01 08:44:22;;;;;;;5.50;0.77;;;12.60;99.90;;;;;;4934867;29;20052;-84
2022/10/01 08:46:50;;;;;;;3.15;0.82;;;12.70;99.90;;;;;;4953053;28;20058;-83
2022/10/01 08:49:33;;;;;;;1.00;0.60;;;12.70;99.90;;;;;;4944922;29;20047;-83
2022/10/01 08:52:22;;;;;;;1.13;0.60;;;12.70;99.90;;;;;;4950257;29;20062;-83
2022/10/01 08:55:04;;;;;;;1.42;0.70;;;12.80;99.90;;;;;;4957930;28;20054;-84
2022/10/01 08:57:38;;;;;;;1.75;0.70;;;12.90;99.90;;;;;;4953209;29;20051;-82
2022/10/01 09:00:12;;;;;;;0.63;0.52;;;13.00;99.90;;;;;;4948828;29;20052;-82
2022/10/01 09:02:42;;;;;;;0.52;0.50;;;13.00;99.90;;;;;;4947826;29;20617;-83
2022/10/01 09:05:19;;;;;;;0.83;0.60;;;13.10;99.90;;;;;;4935167;29;20465;-83
2022/10/01 09:08:04;;;;;;;0.82;0.70;;;13.20;99.90;;;;;;4955815;29;20428;-82
2022/10/01 09:10:43;;;;;;;1.10;0.70;;;13.30;99.90;;;;;;4937752;29;20071;-82
2022/10/01 09:13:22;;;;;;;1.00;0.80;;;13.30;99.90;;;;;;4947254;29;20572;-82
2022/10/01 09:16:16;;;;;;;1.40;0.65;;;13.40;99.90;;;;;;4943332;29;20059;-83
2022/10/01 09:18:54;;;;;;;4.47;0.63;;;13.40;99.90;;;;;;4957359;28;20072;-84
2022/10/01 09:21:46;;;;;;;0.95;0.47;;;13.40;99.90;;;;;;4957168;29;20279;-82
2022/10/01 09:24:28;;;;;;;1.15;0.65;;;13.40;99.90;;;;;;4948635;29;20500;-82
2022/10/01 09:26:55;;;;;;;0.75;0.50;;;13.30;99.90;;;;;;4946013;29;20047;-82
2022/10/01 09:29:34;;;;;;;0.85;0.50;;;13.40;99.90;;;;;;4949733;29;20051;-82
2022/10/01 09:32:04;;;;;;;2.78;0.63;;;13.40;99.90;;;;;;4944966;29;20112;-81
2022/10/01 09:34:38;;;;;;;0.63;0.60;;;13.40;99.90;;;;;;4947183;29;20055;-82
2022/10/01 09:37:24;;;;;;;2.60;0.50;;;13.40;99.90;;;;;;4939982;29;20051;-82
2022/10/01 09:40:11;;;;;;;0.90;0.50;;;13.40;99.90;;;;;;4948300;29;20048;-82
2022/10/01 09:42:38;;;;;;;0.95;0.75;;;13.50;99.90;;;;;;4949604;29;20043;-82
2022/10/01 09:45:05;;;;;;;1.02;0.77;;;13.50;99.90;;;;;;4950832;29;20047;-82
2022/10/01 09:47:33;;;;;;;1.38;0.68;;;13.50;99.90;;;;;;4938960;29;20527;-82
2022/10/01 09:50:04;;;;;;;0.50;0.50;;;13.50;99.90;;;;;;4942393;29;20058;-83
2022/10/01 09:52:37;;;;;;;1.33;0.65;;;13.50;99.90;;;;;;4956526;29;20075;-83
2022/10/01 09:55:25;;;;;;;1.20;0.60;;;13.40;99.90;;;;;;4948080;29;20051;-83
2022/10/01 09:58:00;;;;;;;1.70;0.80;;;13.50;99.90;;;;;;4953290;29;20070;-83
2022/10/01 10:00:27;;;;;;;0.88;0.80;;;13.50;99.90;;;;;;4948188;29;20058;-83
2022/10/01 10:02:55;;;;;;;2.53;0.73;;;13.50;99.90;;;;;;4949127;29;20043;-83
2022/10/01 10:05:23;;;;;;;1.05;0.60;;;13.50;99.90;;;;;;4953987;29;20051;-83
2022/10/01 10:07:57;;;;;;;0.70;0.47;;;13.50;99.90;;;;;;4963755;28;20512;-84
2022/10/01 10:10:38;;;;;;;0.50;0.50;;;13.50;99.90;;;;;;4955776;29;20126;-83
2022/10/01 10:13:08;;;;;;;0.60;0.60;;;13.50;99.90;;;;;;4955431;28;20052;-83
2022/10/01 10:15:40;;;;;;;1.42;0.50;;;13.50;99.90;;;;;;4951215;28;20058;-82
2022/10/01 10:18:11;;;;;;;1.88;0.93;;;13.50;99.90;;;;;;4947507;29;20063;-83
2022/10/01 10:20:40;;;;;;;0.77;0.60;;;13.50;99.90;;;;;;4953312;29;20106;-82
2022/10/01 10:23:08;;;;;;;1.38;0.60;;;13.50;99.90;;;;;;4950086;29;20055;-84
2022/10/01 10:25:34;;;;;;;1.02;0.70;;;13.50;99.90;;;;;;4946203;29;20047;-82
2022/10/01 10:28:02;;;;;;;2.25;0.93;;;13.50;99.90;;;;;;4955425;28;20047;-84
2022/10/01 10:30:29;;;;;;;0.88;0.70;;;13.50;99.90;;;;;;4950721;29;20051;-82
2022/10/01 10:33:05;;;;;;;0.93;0.60;;;13.60;99.90;;;;;;4938047;29;20059;-81
2022/10/01 10:35:32;;;;;;;1.17;0.65;;;13.60;99.90;;;;;;4944021;29;20086;-84
2022/10/01 10:37:59;;;;;;;1.17;0.73;;;13.70;99.90;;;;;;4936724;29;20138;-83
2022/10/01 10:40:46;;;;;;;3.88;0.80;;;13.60;99.90;;;;;;4952220;28;20066;-83
2022/10/01 10:43:23;;;;;;;3.13;0.70;;;13.70;99.90;;;;;;4946350;29;20058;-82
2022/10/01 10:45:54;;;;;;;1.85;0.73;;;13.70;99.90;;;;;;4941164;29;20062;-83
2022/10/01 10:48:27;;;;;;;2.53;0.90;;;13.70;99.90;;;;;;4963037;29;20055;-84
2022/10/01 10:51:00;;;;;;;1.35;1.00;;;13.80;99.90;;;;;;4961968;29;20055;-82
2022/10/01 10:53:38;;;;;;;1.83;0.80;;;13.80;99.90;;;;;;4947070;29;20047;-83
2022/10/01 10:56:06;;;;;;;1.30;0.52;;;13.90;99.90;;;;;;4958813;29;20111;-83
2022/10/01 10:58:41;;;;;;;1.40;0.57;;;13.90;99.90;;;;;;4957085;28;20058;-83
2022/10/01 11:01:15;;;;;;;0.98;0.50;;;13.90;99.90;;;;;;4963280;29;20023;-83
2022/10/01 11:03:52;;;;;;;2.22;0.55;;;14.00;99.90;;;;;;4963312;29;20078;-83
2022/10/01 11:06:19;;;;;;;2.65;0.77;;;13.90;99.90;;;;;;4948012;29;20047;-83
2022/10/01 11:08:55;;;;;;;0.93;0.80;;;13.90;99.90;;;;;;4952687;29;20047;-82
2022/10/01 11:11:38;;;;;;;1.83;0.70;;;14.00;99.90;;;;;;4962622;29;20078;-83
2022/10/01 11:14:21;;;;;;;1.35;0.98;;;13.90;99.90;;;;;;4963019;29;20057;-83
2022/10/01 11:17:20;;;;;;;1.15;0.90;;;13.80;99.90;;;;;;4956342;29;20062;-83
2022/10/01 11:20:01;;;;;;;1.63;0.80;;;13.80;99.90;;;;;;4957479;28;20075;-83
2022/10/01 11:22:37;;;;;;;1.75;0.75;;;13.80;99.90;;;;;;4963461;29;20048;-84
2022/10/01 11:25:36;;;;;;;4.20;1.10;;;13.80;99.90;;;;;;4963460;29;20541;-83
2022/10/01 11:28:03;;;;;;;2.47;1.15;;;13.80;99.90;;;;;;4957189;29;20059;-83
2022/10/01 11:30:55;;;;;;;2.47;1.55;;;13.90;99.90;;;;;;4960432;29;20051;-83
2022/10/01 11:34:00;;;;;;;2.35;1.10;;;13.90;99.90;;;;;;4962796;29;20060;-83
2022/10/01 11:36:29;;;;;;;0.98;0.80;;;13.90;99.90;;;;;;4944240;29;20055;-82
2022/10/01 11:39:04;;;;;;;2.25;0.70;;;13.90;99.90;;;;;;4950217;29;20429;-83
2022/10/01 11:41:53;;;;;;;1.58;0.80;;;13.90;99.90;;;;;;4953697;29;20056;-83
2022/10/01 11:44:38;;;;;;;1.33;1.10;;;13.90;99.90;;;;;;4952610;29;20049;-83
2022/10/01 11:47:22;;;;;;;2.67;1.10;;;13.80;99.90;;;;;;4946136;29;20206;-83
2022/10/01 11:50:18;;;;;;;1.40;0.75;;;13.80;99.90;;;;;;4954698;29;20055;-83
2022/10/01 11:53:01;;;;;;;3.83;0.63;;;13.80;99.90;;;;;;4967601;29;20047;-84
2022/10/01 11:58:50;;;;;;;1.60;1.08;;;13.80;99.90;;;;;;4962942;29;20123;-84
2022/10/01 12:01:23;;;;;;;;;;;13.80;99.90;;;;;;4961418;29;20050;-83
2022/10/01 12:03:53;;;;;;;1.55;0.82;;;13.70;99.90;;;;;;4970625;29;19933;-83
2022/10/01 12:06:27;;;;;;;1.05;0.80;;;13.70;99.90;;;;;;4961180;29;20055;-83
2022/10/01 12:09:18;;;;;;;0.60;0.60;;;13.80;99.90;;;;;;4965912;29;20078;-82
2022/10/01 12:12:04;;;;;;;1.67;0.73;;;13.80;99.90;;;;;;4969240;29;20106;-82
2022/10/01 12:14:49;;;;;;;0.60;0.60;;;13.80;99.90;;;;;;4956583;29;20051;-83
2022/10/01 12:17:31;;;;;;;5.03;1.10;;;13.80;99.90;;;;;;4957003;28;20047;-83
2022/10/01 12:20:00;;;;;;;0.98;0.70;;;13.80;99.90;;;;;;4962362;29;20058;-83
2022/10/01 12:22:30;;;;;;;0.95;0.63;;;13.80;99.90;;;;;;4957065;29;20058;-83
2022/10/01 12:24:56;;;;;;;0.80;0.70;;;13.80;99.90;;;;;;4957505;29;20134;-83
2022/10/01 12:27:46;;;;;;;2.28;0.70;;;13.80;99.90;;;;;;4953903;29;20517;-83
2022/10/01 12:30:21;;;;;;;2.17;0.60;;;13.80;99.90;;;;;;4962355;29;20048;-83
2022/10/01 12:33:16;;;;;;;0.77;0.50;;;13.80;99.90;;;;;;4961133;28;20051;-83
2022/10/01 12:36:04;;;;;;;3.35;1.20;;;13.80;99.90;;;;;;4938629;29;20061;-82
2022/10/01 12:38:44;;;;;;;3.67;0.70;;;13.90;99.90;;;;;;4958063;29;20051;-83
2022/10/01 12:41:42;;;;;;;0.82;0.70;;;13.90;99.90;;;;;;4954982;29;20051;-83
2022/10/01 12:44:32;;;;;;;0.88;0.50;;;13.90;99.90;;;;;;4965421;29;20082;-83
2022/10/01 12:47:02;;;;;;;1.60;0.60;;;13.90;99.90;;;;;;4960765;28;20047;-83
2022/10/01 12:50:10;;;;;;;0.82;0.57;;;14.00;99.90;;;;;;4959012;29;20047;-83
2022/10/01 12:53:08;;;;;;;0.65;0.40;;;14.00;99.90;;;;;;4894965;29;20048;-82
2022/10/01 12:55:40;;;;;;;1.05;0.57;;;14.00;99.90;;;;;;4890419;29;20061;-83
2022/10/01 12:58:33;;;;;;;1.20;0.60;;;13.90;99.90;;;;;;4937604;29;20083;-82
2022/10/01 13:01:30;;;;;;;1.35;0.45;;;13.90;99.90;;;;;;4945621;29;20066;-83
2022/10/01 13:03:59;;;;;;;0.98;0.80;;;13.90;99.90;;;;;;4950941;29;20091;-83
2022/10/01 13:07:06;;;;;;;1.23;0.80;;;13.90;99.90;;;;;;4953227;29;20552;-80
2022/10/01 13:10:03;;;;;;;2.35;0.63;;;13.90;99.90;;;;;;4955899;29;20047;-83
2022/10/01 13:13:16;;;;;;;1.85;0.80;;;13.90;99.90;;;;;;4953483;29;20071;-83
2022/10/01 13:15:46;;;;;;;2.97;1.63;;;13.90;99.90;;;;;;4926112;29;20047;-83
2022/10/01 13:18:19;;;;;;;1.30;0.70;;;13.90;99.90;;;;;;4949588;29;20055;-82
2022/10/01 13:20:58;;;;;;;1.63;0.75;;;13.90;99.90;;;;;;4949537;29;20102;-83
2022/10/01 13:23:50;;;;;;;1.30;0.60;;;13.90;99.90;;;;;;4942720;29;20429;-82
2022/10/01 13:26:46;;;;;;;1.05;0.50;;;13.90;99.90;;;;;;4953703;29;20159;-83
2022/10/01 13:29:31;;;;;;;0.70;0.70;;;13.90;99.90;;;;;;4939317;29;20071;-84
2022/10/01 13:32:03;;;;;;;1.27;0.60;;;13.90;99.90;;;;;;4953516;29;20056;-83
2022/10/01 13:34:40;;;;;;;2.00;0.70;;;13.80;99.90;;;;;;4946420;29;20055;-82
2022/10/01 13:37:29;;;;;;;2.83;1.58;;;13.80;99.90;;;;;;4951225;28;20066;-82
2022/10/01 13:39:57;;;;;;;1.95;1.02;;;13.80;99.90;;;;;;4956990;29;20047;-82
2022/10/01 13:42:26;;;;;;;2.30;1.10;;;13.80;99.90;;;;;;4939815;29;20110;-82
2022/10/01 13:45:01;;;;;;;0.40;0.40;;;13.80;99.90;;;;;;4961823;28;20071;-82
2022/10/01 13:47:28;;;;;;;1.27;0.40;;;13.80;99.90;;;;;;4960957;28;20058;-83
2022/10/01 13:50:22;;;;;;;1.38;0.90;;;13.80;99.90;;;;;;4958871;29;20098;-83
2022/10/01 13:53:13;;;;;;;0.60;0.60;;;13.80;99.90;;;;;;4950213;29;20059;-83
2022/10/01 13:55:41;;;;;;;1.25;0.75;;;13.80;99.90;;;;;;4949949;29;20055;-83
2022/10/01 13:58:35;;;;;;;0.50;0.50;;;13.90;99.90;;;;;;4947033;29;20054;-83
2022/10/01 14:01:05;;;;;;;1.17;0.60;;;13.80;99.90;;;;;;4946126;29;20063;-83
2022/10/01 14:03:47;;;;;;;0.30;0.30;;;13.90;99.90;;;;;;4936206;29;20047;-82
2022/10/01 14:06:37;;;;;;;1.27;1.10;;;13.90;99.90;;;;;;4931280;29;20059;-82
2022/10/01 14:09:24;;;;;;;1.35;0.80;;;13.90;99.90;;;;;;4953963;29;20044;-83
2022/10/01 14:17:37;;;;;;;0.82;0.60;;;13.90;99.90;;;;;;4953098;28;20055;-83
2022/10/01 14:20:04;;;;;;;1.20;0.80;;;13.90;99.90;;;;;;4947250;29;20051;-81
2022/10/01 14:22:40;;;;;;;1.75;0.80;;;13.90;99.90;;;;;;4940112;29;20056;-83
2022/10/01 14:25:35;;;;;;;0.70;0.70;;;13.90;99.90;;;;;;4965573;29;20115;-82
2022/10/01 14:28:17;;;;;;;1.70;1.00;;;13.90;99.90;;;;;;4965609;28;20062;-83
2022/10/01 14:30:50;;;;;;;0.77;0.68;;;14.00;99.90;;;;;;4957540;29;20079;-84
2022/10/01 14:33:50;;;;;;;2.50;0.82;;;13.90;99.90;;;;;;4960409;29;20052;-82
2022/10/01 14:36:28;;;;;;;1.02;0.65;;;13.90;99.90;;;;;;4955048;29;20058;-83
2022/10/01 14:39:16;;;;;;;0.65;0.63;;;14.00;99.90;;;;;;4949570;29;20051;-83
2022/10/01 14:41:44;;;;;;;1.02;0.65;;;14.00;99.90;;;;;;4963489;28;20079;-84
2022/10/01 14:44:39;;;;;;;0.60;0.50;;;14.10;99.90;;;;;;4942720;29;20047;-82
2022/10/01 14:47:24;;;;;;;0.57;0.40;;;14.00;99.90;;;;;;4939048;29;20055;-83
2022/10/01 14:49:53;;;;;;;1.02;0.70;;;14.00;99.90;;;;;;4947050;29;20059;-86
2022/10/01 14:52:27;;;;;;;0.88;0.73;;;14.10;99.90;;;;;;4958098;29;20066;-83
2022/10/01 14:55:11;;;;;;;0.75;0.70;;;14.10;99.90;;;;;;4938490;29;20378;-82
2022/10/01 14:57:42;;;;;;;2.63;0.77;;;14.10;99.90;;;;;;4949803;29;20062;-83
2022/10/01 15:00:25;;;;;;;0.80;0.70;;;14.10;99.90;;;;;;4960799;29;20135;-83
2022/10/01 15:03:06;;;;;;;1.00;0.80;;;14.10;99.90;;;;;;4957978;29;20122;-83
2022/10/01 15:05:35;;;;;;;1.00;0.88;;;14.10;99.90;;;;;;4958074;29;20635;-83
2022/10/01 15:08:34;;;;;;;0.82;0.70;;;14.10;99.90;;;;;;4944399;29;20074;-83
2022/10/01 15:11:09;;;;;;;1.02;0.80;;;14.20;99.90;;;;;;4948160;29;20051;-83
2022/10/01 15:13:39;;;;;;;1.45;0.50;;;14.20;99.90;;;;;;4957677;29;20047;-83
2022/10/01 15:16:12;;;;;;;1.13;0.90;;;14.20;99.90;;;;;;4958483;29;20051;-83
2022/10/01 15:19:00;;;;;;;1.13;0.70;;;14.20;99.90;;;;;;4949450;28;20047;-82
2022/10/01 15:21:29;;;;;;;1.17;0.77;;;14.20;99.90;;;;;;4961647;29;20077;-83
2022/10/01 15:23:56;;;;;;;1.15;0.60;;;14.20;99.90;;;;;;4959940;29;20107;-83
2022/10/01 15:26:28;;;;;;;1.95;1.23;;;14.20;99.90;;;;;;4954583;29;20486;-83
2022/10/01 15:29:11;;;;;;;2.97;1.50;;;14.20;99.90;;;;;;4950178;29;20048;-83
2022/10/01 15:31:40;;;;;;;0.35;0.35;;;14.20;99.90;;;;;;4948960;29;20123;-81
2022/10/01 15:34:11;;;;;;;1.85;0.93;;;14.30;99.90;;;;;;4962278;28;20058;-83
2022/10/01 15:36:39;;;;;;;2.38;1.20;;;14.20;99.90;;;;;;4955400;29;20413;-83
2022/10/01 15:39:21;;;;;;;1.77;0.90;;;14.30;99.90;;;;;;4953063;29;20038;-82
2022/10/01 15:41:51;;;;;;;6.15;2.47;;;14.30;99.90;;;;;;4949785;29;20569;-83
2022/10/01 15:44:45;;;;;;;3.37;1.60;;;14.30;99.90;;;;;;4960042;29;20102;-83
2022/10/01 15:47:30;;;;;;;1.95;1.25;;;14.20;99.90;;;;;;4954428;29;20043;-83
2022/10/01 15:50:12;;;;;;;1.77;1.05;;;14.30;99.90;;;;;;4962166;29;20055;-83
2022/10/01 15:53:08;;;;;;;1.05;0.80;;;14.30;99.90;;;;;;4948302;29;20054;-82
2022/10/01 15:55:49;;;;;;;1.15;0.63;;;14.30;99.90;;;;;;4929904;29;20138;-83
2022/10/01 15:58:20;;;;;;;1.60;0.90;;;14.30;99.90;;;;;;4947027;29;20063;-83
2022/10/01 16:00:50;;;;;;;0.70;0.70;;;14.30;99.90;;;;;;4948762;29;20079;-83
2022/10/01 16:03:31;;;;;;;1.45;0.52;;;14.30;99.90;;;;;;4958747;29;20047;-83
2022/10/01 16:06:00;;;;;;;0.55;0.50;;;14.30;99.90;;;;;;4953399;29;20047;-83
2022/10/01 16:08:34;;;;;;;1.42;0.50;;;14.30;99.90;;;;;;4960088;28;20146;-83
2022/10/01 16:11:13;;;;;;;0.88;0.65;;;14.30;99.90;;;;;;4949709;29;20107;-82
2022/10/01 16:13:43;;;;;;;0.70;0.50;;;14.30;99.90;;;;;;4949298;29;20056;-83
2022/10/01 16:16:13;;;;;;;0.75;0.50;;;14.30;99.90;;;;;;4940297;29;20062;-83
2022/10/01 16:18:41;;;;;;;1.63;0.75;;;14.30;99.90;;;;;;4958268;28;20053;-83
2022/10/01 16:21:09;;;;;;;1.02;0.80;;;14.30;99.90;;;;;;4954376;29;20436;-84
2022/10/01 16:23:43;;;;;;;1.35;0.98;;;14.30;99.90;;;;;;4960874;29;20473;-83
2022/10/01 16:26:33;;;;;;;1.83;0.80;;;14.30;99.90;;;;;;4964115;29;20044;-83
2022/10/01 16:29:12;;;;;;;0.55;0.50;;;14.30;99.90;;;;;;4941539;29;20047;-83
2022/10/01 16:31:43;;;;;;;1.08;0.75;;;14.30;99.90;;;;;;4936914;29;20056;-83
2022/10/01 16:34:14;;;;;;;1.42;0.60;;;14.30;99.90;;;;;;4955459;29;20119;-83
2022/10/01 16:36:42;;;;;;;0.77;0.77;;;14.30;99.90;;;;;;4962547;29;20525;-83
2022/10/01 16:39:12;;;;;;;1.38;0.55;;;14.30;99.90;;;;;;4959231;29;20047;-83
2022/10/01 16:41:41;;;;;;;1.15;0.88;;;14.20;99.90;;;;;;4945934;29;20056;-82
2022/10/01 16:44:11;;;;;;;0.90;0.70;;;14.30;99.90;;;;;;4944807;29;20490;-82
2022/10/01 16:46:38;;;;;;;;;;;14.20;99.90;;;;;;4953286;29;20043;-82
2022/10/01 16:49:12;;;;;;;1.27;0.70;;;14.20;99.90;;;;;;4948792;29;19929;-80
2022/10/01 16:51:39;;;;;;;0.88;0.80;;;14.20;99.90;;;;;;4952719;29;20053;-82
2022/10/01 16:54:21;;;;;;;0.70;0.63;;;14.20;99.90;;;;;;4956707;29;20239;-81
2022/10/01 16:56:49;;;;;;;0.63;0.63;;;14.20;99.90;;;;;;4938697;29;20055;-83
2022/10/01 16:59:17;;;;;;;0.70;0.50;;;14.20;99.90;;;;;;4932447;29;20497;-82
2022/10/01 17:01:44;;;;;;;2.08;1.00;;;14.20;99.90;;;;;;4945894;29;20058;-82
2022/10/01 17:04:15;;;;;;;2.70;0.50;;;14.10;99.90;;;;;;4954675;29;20062;-82
2022/10/01 17:06:41;;;;;;;0.88;0.70;;;14.10;99.90;;;;;;4965553;28;20066;-81
2022/10/01 17:09:08;;;;;;;2.60;0.80;;;14.10;99.90;;;;;;4943428;29;20048;-82
2022/10/01 17:11:37;;;;;;;0.63;0.55;;;14.10;99.90;;;;;;4950109;29;20095;-82
2022/10/01 17:14:08;;;;;;;2.08;1.30;;;14.10;99.90;;;;;;4941316;29;20056;-82
2022/10/01 17:16:35;;;;;;;1.15;0.82;;;14.10;99.90;;;;;;4951404;29;20047;-81
2022/10/01 17:19:02;;;;;;;1.35;0.80;;;14.10;99.90;;;;;;4937438;29;20058;-82
2022/10/01 17:21:29;;;;;;;1.05;0.60;;;14.10;99.90;;;;;;4937038;29;20067;-82
2022/10/01 17:23:56;;;;;;;0.85;0.60;;;14.10;99.90;;;;;;4931988;29;20052;-82
2022/10/01 17:26:23;;;;;;;0.57;0.50;;;14.20;99.90;;;;;;4948490;29;20063;-83
2022/10/01 17:28:50;;;;;;;0.93;0.60;;;14.10;99.90;;;;;;4960602;28;20048;-83
2022/10/01 17:31:17;;;;;;;0.93;0.60;;;14.10;99.90;;;;;;4955218;29;20054;-81
2022/10/01 17:33:44;;;;;;;2.55;1.35;;;14.10;99.90;;;;;;4952399;29;20083;-83
2022/10/01 17:36:11;;;;;;;2.17;0.93;;;14.10;99.90;;;;;;4951854;29;20079;-82
2022/10/01 17:38:39;;;;;;;2.45;0.90;;;14.10;99.90;;;;;;4959751;28;20138;-83
2022/10/01 17:41:06;;;;;;;1.40;0.70;;;14.10;99.90;;;;;;4956907;29;20051;-82
2022/10/01 17:43:35;;;;;;;0.75;0.73;;;14.00;99.90;;;;;;4954201;29;20520;-82
2022/10/01 17:46:02;;;;;;;0.63;0.60;;;14.00;99.90;;;;;;4947699;29;20517;-83
2022/10/01 17:48:29;;;;;;;2.17;1.10;;;14.10;99.90;;;;;;4933415;29;20055;-83
2022/10/01 17:51:07;;;;;;;1.27;0.80;;;14.00;99.90;;;;;;4958647;29;20110;-82
2022/10/01 17:53:35;;;;;;;2.00;1.15;;;14.10;99.90;;;;;;4938778;29;20063;-82
2022/10/01 17:56:14;;;;;;;1.25;0.88;;;14.00;99.90;;;;;;4947689;29;20051;-81
2022/10/01 17:58:41;;;;;;;0.95;0.82;;;14.10;99.90;;;;;;4951102;29;20047;-82
2022/10/01 18:01:18;;;;;;;2.30;0.88;;;14.10;99.90;;;;;;4960587;29;20055;-83
2022/10/01 18:03:50;;;;;;;1.33;0.80;;;14.10;99.90;;;;;;4938192;29;20043;-82
2022/10/01 18:06:17;;;;;;;2.75;1.63;;;14.10;99.90;;;;;;4947527;29;20502;-82
2022/10/01 18:08:44;;;;;;;1.30;0.90;;;14.10;99.90;;;;;;4937672;29;20065;-83
2022/10/01 18:11:32;;;;;;;3.05;0.90;;;14.10;99.90;;;;;;4950750;29;20527;-83
2022/10/01 18:13:59;;;;;;;0.68;0.60;;;14.10;99.90;;;;;;4957059;29;20086;-83
2022/10/01 18:16:26;;;;;;;0.80;0.57;;;14.10;99.90;;;;;;4963625;29;20059;-81
2022/10/01 18:18:58;;;;;;;2.60;0.70;;;14.10;99.90;;;;;;4947015;29;20105;-83
2022/10/01 18:21:45;;;;;;;0.60;0.60;;;14.10;99.90;;;;;;4963800;29;20457;-83
2022/10/01 18:24:13;;;;;;;1.05;0.40;;;14.10;99.90;;;;;;4956138;29;20130;-83
2022/10/01 18:26:45;;;;;;;0.65;0.60;;;14.10;99.90;;;;;;4945444;28;20440;-84
2022/10/01 18:29:19;;;;;;;1.92;0.60;;;14.10;99.90;;;;;;4948723;28;20169;-83
2022/10/01 18:32:05;;;;;;;1.05;0.60;;;14.10;99.90;;;;;;4947705;29;20074;-82
2022/10/01 18:34:44;;;;;;;0.65;0.60;;;14.10;99.90;;;;;;4956204;29;20058;-83
2022/10/01 18:37:45;;;;;;;1.40;0.70;;;14.10;99.90;;;;;;4962388;28;20051;-84
2022/10/01 18:40:32;;;;;;;3.60;1.40;;;14.10;99.90;;;;;;4948918;29;20145;-83
2022/10/01 18:43:16;;;;;;;3.03;1.27;;;14.10;99.90;;;;;;4945266;29;20055;-83
2022/10/01 18:46:33;;;;;;;8.38;4.25;;;14.10;99.90;;;;;;4946163;29;20101;-83
2022/10/01 18:49:37;;;;;;;2.33;1.10;;;14.10;99.90;;;;;;4983970;23;20059;-80